Time;durP1;ratioP1;P1;durP2;ratioP2;P2;SDS_P1;SDS_P2;PMS_P1;PMS_P2;Temp;Humidity;BMP_temperature;BMP_pressure;BME280_temperature;BME280_humidity;BME280_pressure;Samples;Min_cycle;Max_cycle;Signal;HPM_P1;HPM_P2
2021/12/02 00:03:29;;;;;;;2.50;1.40;;;;;;;9.10;61.50;96823.58;212664;1326;138803;-57
2021/12/02 00:08:32;;;;;;;2.70;1.80;;;;;;;9.04;61.54;96828.12;212919;1321;138523;-60
2021/12/02 00:13:51;;;;;;;2.80;1.70;;;;;;;9.02;61.74;96820.41;211820;1322;139128;-59
2021/12/02 00:24:04;;;;;;;4.00;1.80;;;;;;;8.96;62.02;96813.44;212234;1326;139501;-58
2021/12/02 00:29:08;;;;;;;3.20;1.90;;;;;;;8.92;62.00;96805.54;212464;1325;140882;-58
2021/12/02 00:34:12;;;;;;;2.70;1.70;;;;;;;8.90;62.14;96800.61;212405;1326;139828;-57
2021/12/02 00:39:19;;;;;;;3.50;1.70;;;;;;;8.92;62.04;96800.42;211917;1324;139309;-57
2021/12/02 00:44:22;;;;;;;3.40;1.50;;;;;;;8.93;62.24;96807.41;212082;1325;139987;-57
2021/12/02 00:49:25;;;;;;;2.20;1.30;;;;;;;8.93;62.04;96811.11;212150;1325;139373;-57
2021/12/02 00:54:31;;;;;;;2.20;1.10;;;;;;;8.95;62.19;96817.98;212797;1325;138799;-58
2021/12/02 00:59:35;;;;;;;1.90;1.20;;;;;;;8.96;62.18;96811.54;212255;1330;139392;-59
2021/12/02 01:04:38;;;;;;;1.50;1.00;;;;;;;8.97;62.06;96819.52;213216;1323;139401;-59
2021/12/02 01:09:41;;;;;;;2.10;1.30;;;;;;;9.02;62.17;96820.52;212705;1324;139038;-61
2021/12/02 01:14:45;;;;;;;2.00;1.10;;;;;;;9.04;62.12;96828.33;212127;1329;138654;-58
2021/12/02 01:19:48;;;;;;;5.10;1.30;;;;;;;9.03;62.13;96818.46;212084;1325;138771;-62
2021/12/02 01:24:53;;;;;;;5.00;1.30;;;;;;;9.01;62.20;96807.20;212132;1331;139096;-63
2021/12/02 01:29:57;;;;;;;2.10;1.10;;;;;;;8.99;62.08;96797.09;212222;1329;139119;-56
2021/12/02 01:35:04;;;;;;;2.40;1.40;;;;;;;8.95;62.18;96803.69;212616;1322;142418;-60
2021/12/02 01:40:07;;;;;;;2.70;1.30;;;;;;;8.92;62.10;96799.67;212553;1328;139442;-59
2021/12/02 01:45:15;;;;;;;2.10;1.00;;;;;;;8.90;62.04;96800.04;212156;1329;139684;-58
2021/12/02 01:50:22;;;;;;;2.50;1.30;;;;;;;8.91;62.21;96807.39;212459;1322;138767;-56
2021/12/02 01:55:28;;;;;;;1.20;0.90;;;;;;;8.92;62.19;96809.74;212349;1330;139117;-53
2021/12/02 02:00:44;;;;;;;2.00;1.10;;;;;;;8.90;62.18;96812.59;212144;1328;139062;-56
2021/12/02 02:05:53;;;;;;;2.30;1.10;;;;;;;8.90;62.34;96808.92;212398;1325;141424;-58
2021/12/02 02:10:56;;;;;;;2.60;1.30;;;;;;;8.88;62.19;96812.23;212197;1329;138999;-56
2021/12/02 02:15:59;;;;;;;1.20;0.90;;;;;;;8.85;62.14;96808.09;212156;1329;138663;-55
2021/12/02 02:21:03;;;;;;;2.00;1.40;;;;;;;8.82;62.27;96812.09;212588;1324;138880;-57
2021/12/02 02:26:08;;;;;;;2.70;1.70;;;;;;;8.82;62.21;96821.67;212401;1328;138702;-58
2021/12/02 02:31:11;;;;;;;2.40;1.50;;;;;;;8.79;62.16;96815.02;212856;1328;140184;-56
2021/12/02 02:36:15;;;;;;;2.10;1.50;;;;;;;8.77;62.38;96822.84;212800;1323;139125;-57
2021/12/02 02:41:20;;;;;;;2.60;1.70;;;;;;;8.78;62.53;96836.39;212539;1329;139046;-57
2021/12/02 02:46:30;;;;;;;1.50;1.40;;;;;;;8.80;62.46;96838.30;212445;1323;138748;-58
2021/12/02 02:51:36;;;;;;;1.70;1.40;;;;;;;8.82;62.43;96841.97;212252;1326;139084;-55
2021/12/02 02:57:05;;;;;;;2.00;1.30;;;;;;;8.83;62.40;96836.06;212427;1325;140384;-59
2021/12/02 03:07:42;;;;;;;2.50;1.30;;;;;;;8.81;62.37;96829.21;212291;1327;138771;-57
2021/12/02 03:13:10;;;;;;;1.50;1.20;;;;;;;8.80;62.38;96835.48;212482;1329;217412;-57
2021/12/02 03:18:13;;;;;;;1.80;1.20;;;;;;;8.79;62.46;96848.44;212295;1326;139083;-60
2021/12/02 03:23:16;;;;;;;2.40;1.30;;;;;;;8.79;62.48;96851.31;212727;1329;139968;-59
2021/12/02 03:28:22;;;;;;;1.50;1.30;;;;;;;8.80;62.68;96852.23;212914;1326;139313;-62
2021/12/02 03:33:25;;;;;;;2.40;1.40;;;;;;;8.79;62.73;96851.88;211944;1330;140184;-61
2021/12/02 03:38:28;;;;;;;2.50;1.70;;;;;;;8.76;62.56;96860.77;212362;1325;138774;-63
2021/12/02 03:43:43;;;;;;;2.50;1.60;;;;;;;8.74;62.62;96863.88;212329;1329;139354;-57
2021/12/02 03:48:48;;;;;;;3.90;2.10;;;;;;;8.77;62.62;96859.75;212737;1326;139158;-57
2021/12/02 03:53:51;;;;;;;4.00;1.70;;;;;;;8.77;62.73;96862.92;212191;1329;138635;-59
2021/12/02 03:58:54;;;;;;;2.90;1.70;;;;;;;8.78;62.51;96857.88;212547;1329;139213;-60
2021/12/02 04:03:59;;;;;;;2.60;1.40;;;;;;;8.79;62.47;96849.52;212071;1331;140135;-56
2021/12/02 04:09:13;;;;;;;4.50;1.70;;;;;;;8.74;62.33;96853.48;212139;1326;139449;-60
2021/12/02 04:14:25;;;;;;;2.70;1.80;;;;;;;8.70;62.41;96857.55;212064;1330;138750;-58
2021/12/02 04:19:29;;;;;;;3.20;2.10;;;;;;;8.68;62.30;96855.09;211854;1324;138798;-61
2021/12/02 04:24:33;;;;;;;2.30;1.90;;;;;;;8.63;62.34;96855.50;211894;1325;138971;-59
2021/12/02 04:29:36;;;;;;;2.50;1.60;;;;;;;8.56;62.36;96852.45;211744;1333;140155;-60
2021/12/02 04:34:39;;;;;;;4.50;1.80;;;;;;;8.49;62.32;96852.30;212212;1329;142566;-58
2021/12/02 04:39:42;;;;;;;4.40;1.90;;;;;;;8.46;62.44;96857.08;211961;1328;141036;-59
2021/12/02 04:44:46;;;;;;;37.50;23.10;;;;;;;8.48;62.71;96864.96;212033;1325;138811;-58
2021/12/02 04:49:49;;;;;;;3.40;2.10;;;;;;;8.65;62.93;96876.00;211910;1331;140382;-58
2021/12/02 04:54:52;;;;;;;3.30;2.10;;;;;;;8.68;62.55;96878.54;211994;1331;139567;-58
2021/12/02 04:59:55;;;;;;;4.20;2.00;;;;;;;8.63;62.36;96881.86;211984;1330;140321;-58
2021/12/02 05:04:58;;;;;;;7.90;4.10;;;;;;;8.59;62.41;96885.44;211987;1330;139749;-58
2021/12/02 05:10:03;;;;;;;6.60;2.10;;;;;;;8.62;62.44;96881.05;212233;1323;140427;-60
2021/12/02 05:15:06;;;;;;;3.80;1.70;;;;;;;8.56;62.22;96878.39;211962;1331;139357;-59
2021/12/02 05:20:10;;;;;;;3.30;1.90;;;;;;;8.52;62.27;96876.67;212282;1326;139549;-58
2021/12/02 05:25:14;;;;;;;4.10;1.60;;;;;;;8.46;62.25;96882.28;212258;1330;138998;-58
2021/12/02 05:30:17;;;;;;;7.30;2.20;;;;;;;8.43;62.33;96886.10;212169;1329;139595;-58
2021/12/02 05:35:20;;;;;;;3.50;2.10;;;;;;;8.36;62.17;96888.12;212516;1325;140215;-56
2021/12/02 05:40:23;;;;;;;4.30;2.30;;;;;;;8.29;62.30;96889.59;212319;1328;139279;-59
2021/12/02 05:45:26;;;;;;;4.10;2.30;;;;;;;8.23;62.45;96903.04;212884;1324;140325;-56
2021/12/02 05:50:29;;;;;;;5.80;2.50;;;;;;;8.20;62.52;96915.29;212663;1323;140258;-58
2021/12/02 05:55:33;;;;;;;4.30;2.30;;;;;;;8.18;62.45;96926.56;212602;1325;138603;-60
2021/12/02 06:00:36;;;;;;;3.00;2.30;;;;;;;8.16;62.53;96932.64;212213;1329;140090;-61
2021/12/02 06:05:39;;;;;;;5.30;2.20;;;;;;;8.15;62.51;96934.25;212381;1329;140423;-57
2021/12/02 06:10:43;;;;;;;5.10;2.20;;;;;;;8.16;62.58;96933.15;212003;1328;139615;-59
2021/12/02 06:15:46;;;;;;;4.00;2.30;;;;;;;8.13;62.48;96938.14;212124;1331;139834;-58
2021/12/02 06:20:53;;;;;;;3.60;2.10;;;;;;;8.10;62.57;96941.60;211697;1331;138918;-59
2021/12/02 06:25:56;;;;;;;4.60;2.00;;;;;;;8.05;62.45;96950.32;212163;1329;140976;-59
2021/12/02 06:31:03;;;;;;;3.20;1.80;;;;;;;8.03;62.48;96956.30;212030;1328;141848;-59
2021/12/02 06:36:06;;;;;;;2.60;1.30;;;;;;;8.01;62.45;96964.42;212319;1331;139125;-63
2021/12/02 06:41:16;;;;;;;2.80;1.30;;;;;;;8.05;62.33;96968.89;212250;1329;139683;-58
2021/12/02 06:46:19;;;;;;;3.50;1.30;;;;;;;8.09;62.39;96984.06;212689;1321;139583;-59
2021/12/02 06:51:22;;;;;;;2.60;1.60;;;;;;;8.13;62.31;96981.27;212773;1325;138925;-59
2021/12/02 06:56:25;;;;;;;2.00;1.40;;;;;;;8.15;62.44;96993.64;212080;1325;139625;-57
2021/12/02 07:01:28;;;;;;;2.20;1.50;;;;;;;8.16;62.60;96998.65;212356;1329;140074;-57
2021/12/02 07:06:32;;;;;;;4.40;1.90;;;;;;;8.19;62.55;96990.81;212529;1323;140786;-59
2021/12/02 07:11:35;;;;;;;4.10;1.80;;;;;;;8.23;62.58;96983.77;212127;1328;140328;-57
2021/12/02 07:16:38;;;;;;;2.80;2.00;;;;;;;8.28;62.67;96981.67;212541;1328;139893;-58
2021/12/02 07:21:42;;;;;;;6.50;2.80;;;;;;;8.32;62.56;96986.73;212399;1323;139494;-57
2021/12/02 07:26:46;;;;;;;5.50;2.20;;;;;;;8.37;62.68;96987.74;211864;1331;140235;-58
2021/12/02 07:31:50;;;;;;;10.80;2.30;;;;;;;8.42;62.47;96991.16;212232;1326;138466;-56
2021/12/02 07:36:56;;;;;;;8.10;2.30;;;;;;;8.46;62.31;96995.40;211966;1323;139683;-57
2021/12/02 07:41:59;;;;;;;;;;;;;;;8.53;62.29;96996.02;212607;1322;139474;-60
2021/12/02 07:47:06;;;;;;;5.10;1.90;;;;;;;8.62;62.46;97007.10;212290;1328;125184;-61
2021/12/02 07:52:11;;;;;;;5.70;2.10;;;;;;;8.72;62.26;97014.85;212483;1324;139911;-59
2021/12/02 07:57:16;;;;;;;3.10;2.00;;;;;;;8.81;62.14;97010.98;212201;1328;139790;-60
2021/12/02 08:02:21;;;;;;;3.70;1.50;;;;;;;8.87;61.76;97015.85;212228;1328;138799;-61
2021/12/02 08:07:26;;;;;;;5.70;1.90;;;;;;;8.96;61.75;97027.14;212006;1330;139837;-61
2021/12/02 08:12:29;;;;;;;6.50;2.10;;;;;;;8.98;61.66;97035.39;211859;1332;140413;-57
2021/12/02 08:17:32;;;;;;;4.90;2.00;;;;;;;9.01;61.67;97033.22;212438;1328;141000;-61
2021/12/02 08:22:35;;;;;;;6.00;2.00;;;;;;;9.05;61.68;97029.84;213019;1328;139354;-59
2021/12/02 08:27:40;;;;;;;6.10;2.10;;;;;;;9.09;61.37;97040.14;211897;1324;141237;-60
2021/12/02 08:32:45;;;;;;;5.90;2.50;;;;;;;9.14;61.38;97047.24;212376;1328;139341;-59
2021/12/02 08:37:51;;;;;;;4.90;2.60;;;;;;;9.20;61.44;97048.74;212075;1328;140171;-59
2021/12/02 08:42:54;;;;;;;;;;;;;;;9.23;61.37;97056.21;211839;1330;138552;-58
2021/12/02 08:47:58;;;;;;;4.70;2.50;;;;;;;9.25;61.32;97062.42;211993;1328;125462;-58
2021/12/02 08:53:03;;;;;;;3.90;2.00;;;;;;;9.28;61.10;97068.35;212294;1322;139733;-59
2021/12/02 08:58:09;;;;;;;5.40;2.40;;;;;;;9.27;61.17;97070.38;212394;1328;138819;-60
2021/12/02 09:03:15;;;;;;;3.10;1.60;;;;;;;9.22;61.23;97081.41;211991;1325;139567;-59
2021/12/02 09:08:23;;;;;;;5.10;2.00;;;;;;;9.12;61.45;97081.45;212415;1329;141372;-60
2021/12/02 09:13:26;;;;;;;4.00;2.20;;;;;;;9.10;61.64;97083.95;212332;1329;138682;-58
2021/12/02 09:18:29;;;;;;;3.20;1.80;;;;;;;9.11;61.88;97087.03;212021;1331;139726;-60
2021/12/02 09:23:33;;;;;;;4.00;2.20;;;;;;;9.14;61.65;97085.17;212110;1328;138368;-58
2021/12/02 09:28:36;;;;;;;9.30;4.90;;;;;;;9.18;62.02;97087.40;212221;1324;139669;-58
2021/12/02 09:33:39;;;;;;;2.70;1.80;;;;;;;9.28;61.88;97081.79;213074;1324;139813;-60
2021/12/02 09:38:45;;;;;;;3.00;1.70;;;;;;;9.31;61.80;97077.81;212509;1322;139441;-60
2021/12/02 09:43:48;;;;;;;4.50;1.70;;;;;;;9.32;61.61;97075.60;212182;1329;140708;-61
2021/12/02 09:48:54;;;;;;;3.60;1.40;;;;;;;9.28;61.58;97074.89;212002;1329;140016;-60
2021/12/02 09:54:07;;;;;;;57.00;35.30;;;;;;;9.25;61.49;97077.42;212292;1322;140082;-58
2021/12/02 09:59:24;;;;;;;9.50;4.20;;;;;;;9.29;61.67;97071.83;212139;1325;139171;-60
2021/12/02 10:04:28;;;;;;;4.80;1.90;;;;;;;9.29;61.02;97079.48;211950;1332;139510;-59
2021/12/02 10:09:50;;;;;;;5.70;1.80;;;;;;;9.24;61.22;97079.82;212609;1322;139365;-61
2021/12/02 10:14:57;;;;;;;3.90;2.00;;;;;;;9.15;61.04;97083.63;211963;1325;138903;-60
2021/12/02 10:25:33;;;;;;;4.20;2.20;;;;;;;9.17;61.25;97088.23;212688;1321;139503;-58
2021/12/02 10:31:01;;;;;;;5.00;2.30;;;;;;;9.21;61.04;97107.92;211881;1325;141375;-57
2021/12/02 10:36:08;;;;;;;5.50;1.80;;;;;;;9.20;60.66;97109.23;212556;1322;139827;-61
2021/12/02 10:41:18;;;;;;;4.60;1.90;;;;;;;9.18;60.58;97106.40;212182;1324;139180;-62
2021/12/02 10:46:21;;;;;;;3.90;1.40;;;;;;;9.18;60.63;97104.23;213080;1322;139372;-60
2021/12/02 10:51:50;;;;;;;2.50;1.40;;;;;;;9.19;60.30;97097.23;212783;1323;139352;-57
2021/12/02 10:56:55;;;;;;;3.40;1.50;;;;;;;9.19;60.03;97104.71;211914;1325;139776;-59
2021/12/02 11:02:02;;;;;;;;;;;;;;;9.18;60.10;97099.66;212019;1323;139789;-61
2021/12/02 11:07:10;;;;;;;7.10;1.40;;;;;;;9.15;59.84;97098.11;212486;1322;125446;-59
2021/12/02 11:12:22;;;;;;;3.70;1.40;;;;;;;9.17;59.91;97109.66;211906;1329;176960;-61
2021/12/02 11:17:33;;;;;;;3.30;1.20;;;;;;;9.14;59.56;97100.77;212396;1325;140246;-61
2021/12/02 11:22:36;;;;;;;2.60;1.30;;;;;;;9.10;59.60;97101.95;212069;1326;142308;-61
2021/12/02 11:27:46;;;;;;;3.50;1.40;;;;;;;9.08;59.67;97102.31;212313;1322;139216;-59
2021/12/02 11:32:58;;;;;;;5.00;1.70;;;;;;;9.07;59.59;97097.61;212458;1322;139728;-59
2021/12/02 11:38:16;;;;;;;5.40;2.00;;;;;;;9.09;59.70;97098.34;212215;1325;139988;-61
2021/12/02 11:43:26;;;;;;;4.20;1.60;;;;;;;9.13;59.65;97111.29;211733;1331;140536;-60
2021/12/02 11:48:41;;;;;;;3.40;1.50;;;;;;;9.09;59.34;97109.50;212241;1325;139631;-59
2021/12/02 11:53:44;;;;;;;3.80;1.20;;;;;;;9.04;59.14;97110.61;212246;1330;140053;-60
2021/12/02 11:58:49;;;;;;;4.20;1.80;;;;;;;8.97;59.00;97107.28;211877;1322;139641;-59
2021/12/02 12:03:56;;;;;;;4.30;1.60;;;;;;;8.97;59.21;97105.94;211890;1335;141123;-58
2021/12/02 12:09:00;;;;;;;4.00;1.80;;;;;;;8.96;59.19;97103.89;211619;1334;138373;-59
2021/12/02 12:14:13;;;;;;;7.10;2.30;;;;;;;8.95;59.43;97089.99;213213;1323;140371;-59
2021/12/02 12:19:26;;;;;;;52.30;33.90;;;;;;;8.97;59.03;97103.80;212719;1322;140510;-57
2021/12/02 12:24:53;;;;;;;4.70;3.00;;;;;;;9.03;59.61;97113.35;212617;1328;139435;-57
2021/12/02 12:30:12;;;;;;;6.10;1.90;;;;;;;9.08;59.27;97117.50;212634;1323;140020;-57
2021/12/02 12:40:43;;;;;;;3.30;1.90;;;;;;;9.03;59.07;97128.77;212975;1322;139747;-61
2021/12/02 12:45:46;;;;;;;3.20;1.60;;;;;;;9.00;59.11;97129.84;212736;1322;139896;-57
2021/12/02 12:50:54;;;;;;;3.60;2.00;;;;;;;8.94;58.86;97123.65;212352;1322;139229;-55
2021/12/02 12:55:57;;;;;;;5.70;1.80;;;;;;;8.90;59.05;97119.20;212440;1322;138916;-61
2021/12/02 13:01:02;;;;;;;4.60;2.20;;;;;;;8.87;58.78;97116.15;212410;1322;139284;-61
2021/12/02 13:06:20;;;;;;;3.70;2.00;;;;;;;8.85;59.16;97123.78;212498;1322;139198;-59
2021/12/02 13:11:26;;;;;;;4.70;2.10;;;;;;;8.85;58.99;97125.16;211953;1324;138905;-57
2021/12/02 13:16:36;;;;;;;4.50;2.40;;;;;;;8.86;59.01;97131.27;212380;1329;139580;-60
2021/12/02 13:21:41;;;;;;;4.50;2.10;;;;;;;8.84;58.91;97134.09;212381;1325;139086;-61
2021/12/02 13:27:06;;;;;;;5.30;2.40;;;;;;;8.84;58.95;97138.22;212289;1322;139658;-60
2021/12/02 13:32:09;;;;;;;5.20;2.30;;;;;;;8.87;59.17;97139.52;212509;1322;138986;-61
2021/12/02 13:37:14;;;;;;;5.20;2.90;;;;;;;8.88;58.89;97145.25;212402;1322;139973;-59
2021/12/02 13:42:18;;;;;;;7.00;2.70;;;;;;;8.88;58.99;97144.39;212627;1322;139480;-57
2021/12/02 13:47:31;;;;;;;8.30;2.90;;;;;;;8.86;58.95;97148.25;212679;1325;140365;-60
2021/12/02 13:57:48;;;;;;;8.80;4.60;;;;;;;8.87;59.08;97154.70;212117;1323;140270;-59
2021/12/02 14:03:08;;;;;;;5.50;2.70;;;;;;;8.85;59.02;97158.77;212702;1324;139787;-60
2021/12/02 14:08:14;;;;;;;6.90;2.60;;;;;;;8.81;58.74;97164.91;212745;1322;139483;-59
2021/12/02 14:13:23;;;;;;;7.70;2.70;;;;;;;8.75;58.52;97166.30;211995;1325;140258;-59
2021/12/02 14:18:29;;;;;;;6.60;2.60;;;;;;;8.69;58.69;97171.22;212595;1322;139485;-58
2021/12/02 14:23:36;;;;;;;3.40;1.70;;;;;;;8.66;58.30;97177.67;211934;1331;139063;-58
2021/12/02 14:28:44;;;;;;;8.00;2.20;;;;;;;8.63;58.47;97189.80;212379;1324;140607;-60
2021/12/02 14:33:48;;;;;;;6.50;2.00;;;;;;;8.60;58.22;97195.86;212315;1328;139591;-59
2021/12/02 14:39:04;;;;;;;4.20;1.80;;;;;;;8.58;58.07;97203.67;212066;1329;139247;-60
2021/12/02 14:44:23;;;;;;;7.70;1.70;;;;;;;8.55;57.90;97206.23;212924;1324;141013;-58
2021/12/02 14:49:40;;;;;;;3.50;2.00;;;;;;;8.54;57.95;97212.80;212493;1324;140184;-58
2021/12/02 14:54:46;;;;;;;5.20;2.00;;;;;;;8.54;57.89;97221.84;212818;1322;139490;-61
2021/12/02 15:00:08;;;;;;;4.50;1.70;;;;;;;8.50;57.79;97225.14;211896;1330;139872;-60
2021/12/02 15:05:23;;;;;;;134.80;78.20;;;;;;;8.46;57.64;97230.42;213955;1322;139622;-61
2021/12/02 15:10:28;;;;;;;8.90;3.80;;;;;;;8.50;57.96;97233.27;212310;1321;138936;-59
2021/12/02 15:15:33;;;;;;;4.50;2.30;;;;;;;8.45;57.62;97240.57;211871;1324;140206;-61
2021/12/02 15:20:38;;;;;;;7.20;2.30;;;;;;;8.40;57.50;97245.42;211901;1326;139244;-59
2021/12/02 15:26:06;;;;;;;7.90;2.30;;;;;;;8.36;57.48;97251.06;212095;1326;139616;-60
2021/12/02 15:31:18;;;;;;;5.00;2.10;;;;;;;8.33;57.43;97251.27;212538;1323;140026;-62
2021/12/02 15:36:25;;;;;;;8.40;2.60;;;;;;;8.28;57.36;97262.77;212514;1322;140299;-59
2021/12/02 15:41:29;;;;;;;5.60;2.50;;;;;;;8.25;57.42;97273.80;211971;1328;139391;-59
2021/12/02 15:46:37;;;;;;;9.50;3.20;;;;;;;8.22;57.46;97276.02;212929;1323;139917;-62
2021/12/02 15:51:41;;;;;;;10.50;2.50;;;;;;;8.18;57.41;97277.73;212228;1329;229502;-59
2021/12/02 15:56:46;;;;;;;7.40;2.90;;;;;;;8.14;57.50;97281.97;212107;1327;140252;-60
2021/12/02 16:02:01;;;;;;;8.70;2.70;;;;;;;8.09;57.41;97289.08;211942;1330;138959;-62
2021/12/02 16:07:07;;;;;;;8.80;2.90;;;;;;;8.04;57.66;97292.99;212662;1324;139765;-61
2021/12/02 16:17:19;;;;;;;7.90;2.90;;;;;;;7.92;57.70;97299.81;212229;1327;126190;-59
2021/12/02 16:22:22;;;;;;;6.00;2.80;;;;;;;7.88;57.59;97301.20;212399;1324;139138;-60
2021/12/02 16:27:27;;;;;;;7.60;3.10;;;;;;;7.84;57.81;97306.64;211900;1325;139573;-61
2021/12/02 16:32:33;;;;;;;6.30;3.20;;;;;;;7.79;57.89;97314.77;212459;1322;138891;-63
2021/12/02 16:37:38;;;;;;;6.60;3.50;;;;;;;7.73;57.96;97311.31;212578;1322;138970;-60
2021/12/02 16:42:46;;;;;;;10.20;3.60;;;;;;;7.71;58.05;97318.59;211883;1328;140129;-59
2021/12/02 16:47:50;;;;;;;14.30;6.40;;;;;;;7.71;58.47;97325.96;211954;1329;139997;-60
2021/12/02 16:52:57;;;;;;;11.50;4.20;;;;;;;7.80;58.44;97328.42;212245;1323;138946;-61
2021/12/02 16:58:01;;;;;;;13.80;4.40;;;;;;;7.73;58.08;97330.02;212014;1330;139409;-59
2021/12/02 17:03:05;;;;;;;10.40;4.50;;;;;;;7.71;58.33;97341.17;212788;1323;139070;-63
2021/12/02 17:08:09;;;;;;;9.50;4.20;;;;;;;7.67;58.16;97346.06;212324;1325;139718;-60
2021/12/02 17:13:12;;;;;;;8.10;4.10;;;;;;;7.61;58.24;97349.70;212379;1325;138558;-61
2021/12/02 17:18:16;;;;;;;8.70;4.50;;;;;;;7.56;58.34;97352.90;212649;1325;139675;-59
2021/12/02 17:23:20;;;;;;;11.50;5.00;;;;;;;7.52;58.53;97354.10;212884;1322;139690;-62
2021/12/02 17:28:24;;;;;;;12.00;4.80;;;;;;;7.49;58.53;97362.42;212203;1325;139354;-59
2021/12/02 17:33:27;;;;;;;11.90;5.50;;;;;;;7.46;58.47;97366.05;212186;1329;140765;-61
2021/12/02 17:38:31;;;;;;;19.00;8.40;;;;;;;7.42;58.53;97370.73;212904;1322;139499;-62
2021/12/02 17:43:35;;;;;;;16.10;6.90;;;;;;;7.43;59.03;97376.12;212269;1326;139133;-59
2021/12/02 17:48:38;;;;;;;12.50;6.10;;;;;;;7.42;58.81;97386.43;212536;1327;140129;-61
2021/12/02 17:53:42;;;;;;;13.70;6.00;;;;;;;7.36;58.68;97391.52;214057;1322;139942;-60
2021/12/02 17:58:45;;;;;;;12.80;6.00;;;;;;;7.29;58.72;97399.57;212756;1322;141255;-60
2021/12/02 18:03:49;;;;;;;15.70;7.00;;;;;;;7.27;59.02;97397.81;214212;1322;139453;-59
2021/12/02 18:08:52;;;;;;;14.10;6.20;;;;;;;7.28;59.13;97400.77;213099;1322;139581;-61
2021/12/02 18:13:55;;;;;;;11.80;6.20;;;;;;;7.28;59.16;97404.80;213881;1322;139896;-59
2021/12/02 18:18:59;;;;;;;16.90;7.10;;;;;;;7.23;59.34;97402.50;214475;1322;138992;-59
2021/12/02 18:24:03;;;;;;;14.40;7.20;;;;;;;7.18;59.18;97410.30;214248;1322;139021;-63
2021/12/02 18:29:06;;;;;;;16.10;7.40;;;;;;;7.18;59.16;97407.46;213767;1326;139393;-59
2021/12/02 18:34:09;;;;;;;17.10;6.70;;;;;;;7.16;59.48;97411.88;214432;1322;139564;-58
2021/12/02 18:39:14;;;;;;;21.80;8.40;;;;;;;7.10;59.58;97418.83;213959;1322;139672;-58
2021/12/02 18:44:17;;;;;;;34.70;15.70;;;;;;;7.06;59.82;97426.69;214159;1323;138970;-61
2021/12/02 18:49:21;;;;;;;28.00;11.60;;;;;;;7.09;59.83;97431.45;214371;1322;139407;-59
2021/12/02 18:54:26;;;;;;;20.60;9.70;;;;;;;7.11;59.94;97437.81;213051;1323;139471;-59
2021/12/02 18:59:29;;;;;;;20.70;10.70;;;;;;;7.05;59.62;97443.69;213341;1325;139754;-56
2021/12/02 19:04:32;;;;;;;31.80;15.30;;;;;;;7.01;60.02;97441.17;214419;1322;139225;-60
2021/12/02 19:30:58;;;;;;;37.10;21.20;;;;;;;7.17;60.33;97446.58;213360;1323;139903;-64
2021/12/02 19:36:06;;;;;;;39.00;20.40;;;;;;;7.09;60.48;97452.77;213451;1322;139823;-61
2021/12/02 19:41:12;;;;;;;37.70;21.30;;;;;;;7.04;60.24;97471.43;213938;1324;138862;-57
2021/12/02 19:46:19;;;;;;;45.00;21.90;;;;;;;7.05;60.28;97479.48;212865;1325;139121;-60
2021/12/02 19:51:24;;;;;;;43.00;21.40;;;;;;;7.06;60.38;97480.10;213106;1323;139060;-60
2021/12/02 19:56:28;;;;;;;39.80;20.10;;;;;;;7.06;60.52;97486.13;213698;1325;139278;-60
2021/12/02 20:01:32;;;;;;;37.10;18.70;;;;;;;7.06;60.38;97484.16;213916;1325;140027;-61
2021/12/02 20:06:44;;;;;;;35.30;18.10;;;;;;;7.02;60.10;97483.22;214186;1321;139620;-57
2021/12/02 20:11:49;;;;;;;33.00;16.20;;;;;;;6.98;59.61;97483.54;213956;1328;139852;-59
2021/12/02 20:16:58;;;;;;;27.10;14.00;;;;;;;6.91;59.13;97484.27;213662;1323;140587;-61
2021/12/02 20:22:06;;;;;;;32.10;14.30;;;;;;;6.85;59.20;97486.58;213114;1322;138731;-58
2021/12/02 20:27:09;;;;;;;32.50;14.30;;;;;;;6.84;58.72;97494.02;213989;1323;139123;-57
2021/12/02 20:32:13;;;;;;;30.40;15.30;;;;;;;6.85;58.75;97497.01;213000;1322;141036;-60
2021/12/02 20:37:17;;;;;;;29.30;13.80;;;;;;;6.83;58.62;97499.25;213982;1324;139198;-57
2021/12/02 20:42:24;;;;;;;32.10;15.40;;;;;;;6.75;58.16;97507.38;214106;1322;138732;-59
2021/12/02 20:47:37;;;;;;;33.80;14.60;;;;;;;6.72;58.12;97497.25;213084;1322;139098;-58
2021/12/02 20:52:41;;;;;;;17.50;9.40;;;;;;;6.74;58.07;97490.73;213102;1326;139496;-60
2021/12/02 20:57:45;;;;;;;18.10;7.80;;;;;;;6.75;57.37;97491.74;212876;1329;139145;-62
2021/12/02 21:02:53;;;;;;;15.70;6.70;;;;;;;6.72;56.91;97487.85;214360;1326;138817;-58
2021/12/02 21:07:57;;;;;;;15.50;7.10;;;;;;;6.62;56.31;97484.17;214131;1328;139756;-59
2021/12/02 21:13:03;;;;;;;18.60;6.60;;;;;;;6.51;55.96;97486.37;212726;1331;139352;-60
2021/12/02 21:18:07;;;;;;;17.50;6.70;;;;;;;6.43;55.73;97495.38;213747;1323;139247;-59
2021/12/02 21:23:13;;;;;;;15.90;6.70;;;;;;;6.34;55.27;97509.40;213750;1328;139918;-61
2021/12/02 21:28:24;;;;;;;17.60;7.70;;;;;;;6.24;55.36;97522.56;212451;1329;139469;-62
2021/12/02 21:33:49;;;;;;;16.80;6.90;;;;;;;6.14;55.09;97512.16;214373;1326;138690;-61
2021/12/02 21:38:58;;;;;;;14.80;6.70;;;;;;;5.99;54.91;97523.42;212701;1327;139082;-59
2021/12/02 21:44:04;;;;;;;15.90;7.00;;;;;;;5.91;54.85;97531.66;213777;1322;152891;-62
2021/12/02 21:49:09;;;;;;;17.00;7.90;;;;;;;5.85;54.73;97545.08;213125;1323;139198;-58
2021/12/02 21:54:14;;;;;;;16.00;6.80;;;;;;;5.76;54.48;97553.30;214064;1322;138798;-60
2021/12/02 21:59:25;;;;;;;17.20;7.70;;;;;;;5.66;54.94;97551.86;213294;1328;139488;-60
2021/12/02 22:04:38;;;;;;;17.40;7.20;;;;;;;5.55;54.37;97536.55;213645;1328;138381;-62
2021/12/02 22:09:46;;;;;;;19.30;7.70;;;;;;;5.52;54.35;97544.85;213451;1324;139568;-62
2021/12/02 22:14:54;;;;;;;18.50;7.70;;;;;;;5.51;54.26;97547.23;214044;1323;138934;-61
2021/12/02 22:19:57;;;;;;;21.00;7.30;;;;;;;5.47;54.22;97556.10;212329;1329;138746;-57
2021/12/02 22:25:01;;;;;;;17.30;5.90;;;;;;;5.44;54.00;97558.74;214060;1323;139716;-62
2021/12/02 22:30:10;;;;;;;11.60;5.00;;;;;;;5.43;53.88;97565.48;213265;1325;139767;-57
2021/12/02 22:35:17;;;;;;;14.00;5.50;;;;;;;5.38;54.12;97566.68;213346;1321;140271;-60
2021/12/02 22:40:26;;;;;;;14.50;5.00;;;;;;;5.34;53.71;97589.59;213491;1322;140764;-59
2021/12/02 22:45:34;;;;;;;13.50;5.40;;;;;;;5.29;53.41;97601.56;214246;1327;139353;-60
2021/12/02 22:50:53;;;;;;;10.80;4.60;;;;;;;5.21;53.17;97616.31;212689;1328;139086;-62
2021/12/02 22:55:57;;;;;;;10.90;4.60;;;;;;;5.14;53.32;97617.75;213613;1325;139813;-60
2021/12/02 23:01:05;;;;;;;14.60;5.10;;;;;;;5.15;53.42;97631.60;214094;1324;138761;-57
2021/12/02 23:06:10;;;;;;;10.90;4.20;;;;;;;5.12;53.12;97639.40;214253;1322;139149;-60
2021/12/02 23:11:13;;;;;;;9.70;3.80;;;;;;;5.08;53.00;97650.02;213116;1324;139144;-60
2021/12/02 23:16:17;;;;;;;11.70;4.20;;;;;;;5.01;52.64;97657.98;212814;1329;138974;-58
2021/12/02 23:21:20;;;;;;;8.00;3.70;;;;;;;4.99;52.64;97641.93;213601;1322;140775;-58
2021/12/02 23:26:23;;;;;;;12.40;3.80;;;;;;;5.03;52.97;97643.13;214720;1322;139086;-61
2021/12/02 23:31:27;;;;;;;10.60;3.60;;;;;;;5.03;52.75;97658.91;213496;1322;139057;-59
2021/12/02 23:36:30;;;;;;;9.20;3.60;;;;;;;5.02;52.53;97651.27;213562;1322;139236;-63
2021/12/02 23:41:35;;;;;;;9.20;3.50;;;;;;;4.98;52.40;97655.36;212496;1328;139189;-60
2021/12/02 23:46:38;;;;;;;8.50;3.60;;;;;;;4.97;52.38;97671.92;214062;1322;139377;-57
2021/12/02 23:51:41;;;;;;;8.00;3.50;;;;;;;4.94;52.56;97689.70;212811;1324;139346;-57
2021/12/02 23:56:44;;;;;;;9.60;3.50;;;;;;;4.92;52.39;97700.88;213692;1322;138930;-59
